sensor_id;sensor_type;location;lat;lon;timestamp;temperature;humidity
2973;DHT22;1496;51.404;7.232;2023-05-20T00:01:11;12.30;1.00
2973;DHT22;1496;51.404;7.232;2023-05-20T00:03:38;12.30;1.00
2973;DHT22;1496;51.404;7.232;2023-05-20T00:06:05;12.30;1.00
2973;DHT22;1496;51.404;7.232;2023-05-20T00:08:32;12.30;1.00
2973;DHT22;1496;51.404;7.232;2023-05-20T00:10:59;12.30;1.00
2973;DHT22;1496;51.404;7.232;2023-05-20T00:13:26;12.30;1.00
2973;DHT22;1496;51.404;7.232;2023-05-20T00:15:53;12.40;1.00
2973;DHT22;1496;51.404;7.232;2023-05-20T00:18:20;12.30;1.00
2973;DHT22;1496;51.404;7.232;2023-05-20T00:20:47;12.30;1.00
2973;DHT22;1496;51.404;7.232;2023-05-20T00:23:13;12.30;1.00
2973;DHT22;1496;51.404;7.232;2023-05-20T00:25:41;12.20;1.00
2973;DHT22;1496;51.404;7.232;2023-05-20T00:28:09;12.20;1.00
2973;DHT22;1496;51.404;7.232;2023-05-20T00:30:39;12.20;1.00
2973;DHT22;1496;51.404;7.232;2023-05-20T00:33:07;12.10;1.00
2973;DHT22;1496;51.404;7.232;2023-05-20T00:35:35;12.10;1.00
2973;DHT22;1496;51.404;7.232;2023-05-20T00:38:02;12.00;1.00
2973;DHT22;1496;51.404;7.232;2023-05-20T00:40:28;12.00;1.00
2973;DHT22;1496;51.404;7.232;2023-05-20T00:42:55;12.00;1.00
2973;DHT22;1496;51.404;7.232;2023-05-20T00:45:22;11.90;1.00
2973;DHT22;1496;51.404;7.232;2023-05-20T00:47:50;11.90;1.00
2973;DHT22;1496;51.404;7.232;2023-05-20T00:50:17;11.90;1.00
2973;DHT22;1496;51.404;7.232;2023-05-20T00:52:44;12.00;1.00
2973;DHT22;1496;51.404;7.232;2023-05-20T00:55:14;11.90;1.00
2973;DHT22;1496;51.404;7.232;2023-05-20T00:57:41;11.90;1.00
2973;DHT22;1496;51.404;7.232;2023-05-20T01:00:09;11.90;1.00
2973;DHT22;1496;51.404;7.232;2023-05-20T01:02:36;11.90;1.00
2973;DHT22;1496;51.404;7.232;2023-05-20T01:05:04;11.90;1.00
2973;DHT22;1496;51.404;7.232;2023-05-20T01:07:32;11.80;1.00
2973;DHT22;1496;51.404;7.232;2023-05-20T01:10:00;11.70;1.00
2973;DHT22;1496;51.404;7.232;2023-05-20T01:12:42;11.70;1.00
2973;DHT22;1496;51.404;7.232;2023-05-20T01:15:13;11.70;1.00
2973;DHT22;1496;51.404;7.232;2023-05-20T01:17:47;11.60;1.00
2973;DHT22;1496;51.404;7.232;2023-05-20T01:20:17;11.70;1.00
2973;DHT22;1496;51.404;7.232;2023-05-20T01:22:47;11.70;1.00
2973;DHT22;1496;51.404;7.232;2023-05-20T01:25:14;11.60;1.00
2973;DHT22;1496;51.404;7.232;2023-05-20T01:27:40;11.60;1.00
2973;DHT22;1496;51.404;7.232;2023-05-20T01:30:07;11.60;1.00
2973;DHT22;1496;51.404;7.232;2023-05-20T01:32:40;11.50;1.00
2973;DHT22;1496;51.404;7.232;2023-05-20T01:35:09;11.50;1.00
2973;DHT22;1496;51.404;7.232;2023-05-20T01:37:39;11.40;1.00
2973;DHT22;1496;51.404;7.232;2023-05-20T01:40:08;11.30;1.00
2973;DHT22;1496;51.404;7.232;2023-05-20T01:42:39;11.30;1.00
2973;DHT22;1496;51.404;7.232;2023-05-20T01:45:07;11.20;1.00
2973;DHT22;1496;51.404;7.232;2023-05-20T01:47:35;11.20;1.00
2973;DHT22;1496;51.404;7.232;2023-05-20T01:50:02;11.10;1.00
2973;DHT22;1496;51.404;7.232;2023-05-20T01:52:30;11.10;1.00
2973;DHT22;1496;51.404;7.232;2023-05-20T01:54:57;11.20;1.00
2973;DHT22;1496;51.404;7.232;2023-05-20T01:57:24;11.20;1.00
2973;DHT22;1496;51.404;7.232;2023-05-20T01:59:52;11.30;1.00
2973;DHT22;1496;51.404;7.232;2023-05-20T02:02:19;11.30;1.00
2973;DHT22;1496;51.404;7.232;2023-05-20T02:04:49;11.40;1.00
2973;DHT22;1496;51.404;7.232;2023-05-20T02:07:17;11.30;1.00
2973;DHT22;1496;51.404;7.232;2023-05-20T02:09:45;11.30;1.00
2973;DHT22;1496;51.404;7.232;2023-05-20T02:12:13;11.30;1.00
2973;DHT22;1496;51.404;7.232;2023-05-20T02:14:48;11.20;1.00
2973;DHT22;1496;51.404;7.232;2023-05-20T02:17:16;11.10;1.00
2973;DHT22;1496;51.404;7.232;2023-05-20T02:19:44;11.10;1.00
2973;DHT22;1496;51.404;7.232;2023-05-20T02:22:13;11.10;1.00
2973;DHT22;1496;51.404;7.232;2023-05-20T02:24:43;11.10;1.00
2973;DHT22;1496;51.404;7.232;2023-05-20T02:27:09;11.10;1.00
2973;DHT22;1496;51.404;7.232;2023-05-20T02:29:36;11.10;1.00
2973;DHT22;1496;51.404;7.232;2023-05-20T02:32:03;11.10;1.00
2973;DHT22;1496;51.404;7.232;2023-05-20T02:34:31;11.00;1.00
2973;DHT22;1496;51.404;7.232;2023-05-20T02:36:57;10.90;1.00
2973;DHT22;1496;51.404;7.232;2023-05-20T02:39:24;10.90;1.00
2973;DHT22;1496;51.404;7.232;2023-05-20T02:41:56;10.90;1.00
2973;DHT22;1496;51.404;7.232;2023-05-20T02:44:23;10.90;1.00
2973;DHT22;1496;51.404;7.232;2023-05-20T02:46:49;11.00;1.00
2973;DHT22;1496;51.404;7.232;2023-05-20T02:49:18;11.00;1.00
2973;DHT22;1496;51.404;7.232;2023-05-20T02:51:46;10.80;1.00
2973;DHT22;1496;51.404;7.232;2023-05-20T02:54:13;10.80;1.00
2973;DHT22;1496;51.404;7.232;2023-05-20T02:56:40;10.80;1.00
2973;DHT22;1496;51.404;7.232;2023-05-20T02:59:07;10.80;1.00
2973;DHT22;1496;51.404;7.232;2023-05-20T03:01:35;10.70;1.00
2973;DHT22;1496;51.404;7.232;2023-05-20T03:04:03;10.70;1.00
2973;DHT22;1496;51.404;7.232;2023-05-20T03:06:31;10.70;1.00
2973;DHT22;1496;51.404;7.232;2023-05-20T03:08:59;10.70;1.00
2973;DHT22;1496;51.404;7.232;2023-05-20T03:11:28;10.70;1.00
2973;DHT22;1496;51.404;7.232;2023-05-20T03:13:56;10.80;1.00
2973;DHT22;1496;51.404;7.232;2023-05-20T03:16:23;10.70;1.00
2973;DHT22;1496;51.404;7.232;2023-05-20T03:18:49;10.70;1.00
2973;DHT22;1496;51.404;7.232;2023-05-20T03:21:17;10.70;1.00
2973;DHT22;1496;51.404;7.232;2023-05-20T03:23:44;10.70;1.00
2973;DHT22;1496;51.404;7.232;2023-05-20T03:26:11;10.60;1.00
2973;DHT22;1496;51.404;7.232;2023-05-20T03:28:38;10.60;1.00
2973;DHT22;1496;51.404;7.232;2023-05-20T03:31:06;10.60;1.00
2973;DHT22;1496;51.404;7.232;2023-05-20T03:33:34;10.60;1.00
2973;DHT22;1496;51.404;7.232;2023-05-20T03:36:03;10.50;1.00
2973;DHT22;1496;51.404;7.232;2023-05-20T03:38:29;10.60;1.00
2973;DHT22;1496;51.404;7.232;2023-05-20T03:40:56;10.50;1.00
2973;DHT22;1496;51.404;7.232;2023-05-20T03:43:22;10.50;1.00
2973;DHT22;1496;51.404;7.232;2023-05-20T03:45:51;10.50;1.00
2973;DHT22;1496;51.404;7.232;2023-05-20T03:48:21;10.60;1.00
2973;DHT22;1496;51.404;7.232;2023-05-20T03:50:48;10.50;1.00
2973;DHT22;1496;51.404;7.232;2023-05-20T03:53:16;10.50;1.00
2973;DHT22;1496;51.404;7.232;2023-05-20T03:55:45;10.60;1.00
2973;DHT22;1496;51.404;7.232;2023-05-20T03:58:13;10.50;1.00
2973;DHT22;1496;51.404;7.232;2023-05-20T04:00:42;10.50;1.00
2973;DHT22;1496;51.404;7.232;2023-05-20T04:03:09;10.50;1.00
2973;DHT22;1496;51.404;7.232;2023-05-20T04:05:38;10.50;1.00
2973;DHT22;1496;51.404;7.232;2023-05-20T04:08:14;10.50;1.00
2973;DHT22;1496;51.404;7.232;2023-05-20T04:10:41;10.50;1.00
2973;DHT22;1496;51.404;7.232;2023-05-20T04:13:09;10.50;1.00
2973;DHT22;1496;51.404;7.232;2023-05-20T04:15:37;10.60;1.00
2973;DHT22;1496;51.404;7.232;2023-05-20T04:18:04;10.60;1.00
2973;DHT22;1496;51.404;7.232;2023-05-20T04:20:31;10.50;1.00
2973;DHT22;1496;51.404;7.232;2023-05-20T04:22:59;10.50;1.00
2973;DHT22;1496;51.404;7.232;2023-05-20T04:25:26;10.50;1.00
2973;DHT22;1496;51.404;7.232;2023-05-20T04:27:54;10.60;1.00
2973;DHT22;1496;51.404;7.232;2023-05-20T04:30:23;10.60;1.00
2973;DHT22;1496;51.404;7.232;2023-05-20T04:32:51;10.60;1.00
2973;DHT22;1496;51.404;7.232;2023-05-20T04:35:19;10.60;1.00
2973;DHT22;1496;51.404;7.232;2023-05-20T04:37:48;10.60;1.00
2973;DHT22;1496;51.404;7.232;2023-05-20T04:40:19;10.60;1.00
2973;DHT22;1496;51.404;7.232;2023-05-20T04:42:47;10.60;1.00
2973;DHT22;1496;51.404;7.232;2023-05-20T04:45:14;10.70;1.00
2973;DHT22;1496;51.404;7.232;2023-05-20T04:47:41;10.80;1.00
2973;DHT22;1496;51.404;7.232;2023-05-20T04:50:10;10.90;1.00
2973;DHT22;1496;51.404;7.232;2023-05-20T04:52:40;10.90;1.00
2973;DHT22;1496;51.404;7.232;2023-05-20T04:55:09;11.00;1.00
2973;DHT22;1496;51.404;7.232;2023-05-20T04:57:38;11.00;1.00
2973;DHT22;1496;51.404;7.232;2023-05-20T05:00:11;11.00;1.00
2973;DHT22;1496;51.404;7.232;2023-05-20T05:02:40;11.10;1.00
2973;DHT22;1496;51.404;7.232;2023-05-20T05:05:07;11.10;1.00
2973;DHT22;1496;51.404;7.232;2023-05-20T05:07:33;11.10;1.00
2973;DHT22;1496;51.404;7.232;2023-05-20T05:10:02;11.10;1.00
2973;DHT22;1496;51.404;7.232;2023-05-20T05:12:30;11.20;1.00
2973;DHT22;1496;51.404;7.232;2023-05-20T05:14:57;11.20;1.00
2973;DHT22;1496;51.404;7.232;2023-05-20T05:17:24;11.30;1.00
2973;DHT22;1496;51.404;7.232;2023-05-20T05:19:52;11.30;1.00
2973;DHT22;1496;51.404;7.232;2023-05-20T05:22:20;11.30;1.00
2973;DHT22;1496;51.404;7.232;2023-05-20T05:24:48;11.40;1.00
2973;DHT22;1496;51.404;7.232;2023-05-20T05:27:15;11.40;1.00
2973;DHT22;1496;51.404;7.232;2023-05-20T05:29:42;11.40;1.00
2973;DHT22;1496;51.404;7.232;2023-05-20T05:32:08;11.50;1.00
2973;DHT22;1496;51.404;7.232;2023-05-20T05:34:35;11.50;1.00
2973;DHT22;1496;51.404;7.232;2023-05-20T05:37:03;11.50;1.00
2973;DHT22;1496;51.404;7.232;2023-05-20T05:39:29;11.50;1.00
2973;DHT22;1496;51.404;7.232;2023-05-20T05:41:56;11.60;1.00
2973;DHT22;1496;51.404;7.232;2023-05-20T05:44:23;11.60;1.00
2973;DHT22;1496;51.404;7.232;2023-05-20T05:46:50;11.60;1.00
2973;DHT22;1496;51.404;7.232;2023-05-20T05:49:19;11.60;1.00
2973;DHT22;1496;51.404;7.232;2023-05-20T05:51:45;11.60;1.00
2973;DHT22;1496;51.404;7.232;2023-05-20T05:54:12;11.70;1.00
2973;DHT22;1496;51.404;7.232;2023-05-20T05:56:39;11.90;1.00
2973;DHT22;1496;51.404;7.232;2023-05-20T05:59:10;12.10;1.00
2973;DHT22;1496;51.404;7.232;2023-05-20T06:01:36;12.30;1.00
2973;DHT22;1496;51.404;7.232;2023-05-20T06:04:07;12.40;1.00
2973;DHT22;1496;51.404;7.232;2023-05-20T06:06:36;12.60;1.00
2973;DHT22;1496;51.404;7.232;2023-05-20T06:09:03;12.70;1.00
2973;DHT22;1496;51.404;7.232;2023-05-20T06:11:32;12.80;1.00
2973;DHT22;1496;51.404;7.232;2023-05-20T06:14:00;12.70;1.00
2973;DHT22;1496;51.404;7.232;2023-05-20T06:16:28;12.60;1.00
2973;DHT22;1496;51.404;7.232;2023-05-20T06:18:58;12.50;1.00
2973;DHT22;1496;51.404;7.232;2023-05-20T06:21:26;12.40;1.00
2973;DHT22;1496;51.404;7.232;2023-05-20T06:23:52;12.40;1.00
2973;DHT22;1496;51.404;7.232;2023-05-20T06:26:19;12.50;1.00
2973;DHT22;1496;51.404;7.232;2023-05-20T06:28:46;12.50;1.00
2973;DHT22;1496;51.404;7.232;2023-05-20T06:31:13;12.70;1.00
2973;DHT22;1496;51.404;7.232;2023-05-20T06:33:40;12.90;1.00
2973;DHT22;1496;51.404;7.232;2023-05-20T06:36:11;13.10;1.00
2973;DHT22;1496;51.404;7.232;2023-05-20T06:38:39;13.20;1.00
2973;DHT22;1496;51.404;7.232;2023-05-20T06:41:09;13.20;1.00
2973;DHT22;1496;51.404;7.232;2023-05-20T06:43:37;13.10;1.00
2973;DHT22;1496;51.404;7.232;2023-05-20T06:46:28;12.90;1.00
2973;DHT22;1496;51.404;7.232;2023-05-20T06:49:00;12.80;1.00
2973;DHT22;1496;51.404;7.232;2023-05-20T06:51:29;12.60;1.00
2973;DHT22;1496;51.404;7.232;2023-05-20T06:53:56;12.60;1.00
2973;DHT22;1496;51.404;7.232;2023-05-20T06:56:24;12.60;1.00
2973;DHT22;1496;51.404;7.232;2023-05-20T06:58:55;12.60;1.00
2973;DHT22;1496;51.404;7.232;2023-05-20T07:01:29;12.60;1.00
2973;DHT22;1496;51.404;7.232;2023-05-20T07:03:55;12.50;1.00
2973;DHT22;1496;51.404;7.232;2023-05-20T07:06:23;12.60;1.00
2973;DHT22;1496;51.404;7.232;2023-05-20T07:08:49;12.60;1.00
2973;DHT22;1496;51.404;7.232;2023-05-20T07:11:17;12.70;1.00
2973;DHT22;1496;51.404;7.232;2023-05-20T07:13:44;12.70;1.00
2973;DHT22;1496;51.404;7.232;2023-05-20T07:16:11;12.70;1.00
2973;DHT22;1496;51.404;7.232;2023-05-20T07:18:42;12.80;1.00
2973;DHT22;1496;51.404;7.232;2023-05-20T07:21:09;12.90;1.00
2973;DHT22;1496;51.404;7.232;2023-05-20T07:24:05;12.90;1.00
2973;DHT22;1496;51.404;7.232;2023-05-20T07:26:32;12.90;1.00
2973;DHT22;1496;51.404;7.232;2023-05-20T07:29:02;13.00;1.00
2973;DHT22;1496;51.404;7.232;2023-05-20T07:31:29;13.00;1.00
2973;DHT22;1496;51.404;7.232;2023-05-20T07:33:57;13.00;1.00
2973;DHT22;1496;51.404;7.232;2023-05-20T07:36:26;13.10;1.00
2973;DHT22;1496;51.404;7.232;2023-05-20T07:38:54;13.20;1.00
2973;DHT22;1496;51.404;7.232;2023-05-20T07:41:21;13.30;1.00
2973;DHT22;1496;51.404;7.232;2023-05-20T07:43:49;13.40;1.00
2973;DHT22;1496;51.404;7.232;2023-05-20T07:46:16;13.50;1.00
2973;DHT22;1496;51.404;7.232;2023-05-20T07:48:43;13.50;1.00
2973;DHT22;1496;51.404;7.232;2023-05-20T07:51:10;13.40;1.00
2973;DHT22;1496;51.404;7.232;2023-05-20T07:53:38;13.50;1.00
2973;DHT22;1496;51.404;7.232;2023-05-20T07:56:06;13.50;1.00
2973;DHT22;1496;51.404;7.232;2023-05-20T07:58:34;13.60;1.00
2973;DHT22;1496;51.404;7.232;2023-05-20T08:01:02;13.50;1.00
2973;DHT22;1496;51.404;7.232;2023-05-20T08:03:28;13.50;1.00
2973;DHT22;1496;51.404;7.232;2023-05-20T08:06:03;13.60;1.00
2973;DHT22;1496;51.404;7.232;2023-05-20T08:08:30;13.60;1.00
2973;DHT22;1496;51.404;7.232;2023-05-20T08:11:09;13.60;1.00
2973;DHT22;1496;51.404;7.232;2023-05-20T08:13:37;13.70;1.00
2973;DHT22;1496;51.404;7.232;2023-05-20T08:16:05;13.80;1.00
2973;DHT22;1496;51.404;7.232;2023-05-20T08:18:34;13.80;1.00
2973;DHT22;1496;51.404;7.232;2023-05-20T08:21:06;13.90;1.00
2973;DHT22;1496;51.404;7.232;2023-05-20T08:23:34;13.80;1.00
2973;DHT22;1496;51.404;7.232;2023-05-20T08:26:02;13.80;1.00
2973;DHT22;1496;51.404;7.232;2023-05-20T08:28:30;13.80;1.00
2973;DHT22;1496;51.404;7.232;2023-05-20T08:31:01;13.80;1.00
2973;DHT22;1496;51.404;7.232;2023-05-20T08:33:29;13.90;1.00
2973;DHT22;1496;51.404;7.232;2023-05-20T08:35:56;13.90;1.00
2973;DHT22;1496;51.404;7.232;2023-05-20T08:38:22;13.90;1.00
2973;DHT22;1496;51.404;7.232;2023-05-20T08:40:54;14.00;1.00
2973;DHT22;1496;51.404;7.232;2023-05-20T08:43:24;14.00;1.00
2973;DHT22;1496;51.404;7.232;2023-05-20T08:45:52;14.10;1.00
2973;DHT22;1496;51.404;7.232;2023-05-20T08:48:25;14.10;1.00
2973;DHT22;1496;51.404;7.232;2023-05-20T08:50:56;14.20;1.00
2973;DHT22;1496;51.404;7.232;2023-05-20T08:53:22;14.20;1.00
2973;DHT22;1496;51.404;7.232;2023-05-20T08:55:55;14.20;1.00
2973;DHT22;1496;51.404;7.232;2023-05-20T08:58:24;14.20;1.00
2973;DHT22;1496;51.404;7.232;2023-05-20T09:00:55;14.10;1.00
2973;DHT22;1496;51.404;7.232;2023-05-20T09:03:24;14.10;1.00
2973;DHT22;1496;51.404;7.232;2023-05-20T09:05:51;14.10;1.00
2973;DHT22;1496;51.404;7.232;2023-05-20T09:08:23;14.10;1.00
2973;DHT22;1496;51.404;7.232;2023-05-20T09:10:56;14.00;1.00
2973;DHT22;1496;51.404;7.232;2023-05-20T09:13:23;14.00;1.00
2973;DHT22;1496;51.404;7.232;2023-05-20T09:15:50;14.10;1.00
2973;DHT22;1496;51.404;7.232;2023-05-20T09:18:16;14.10;1.00
2973;DHT22;1496;51.404;7.232;2023-05-20T09:20:46;14.00;1.00
2973;DHT22;1496;51.404;7.232;2023-05-20T09:23:13;14.10;1.00
2973;DHT22;1496;51.404;7.232;2023-05-20T09:25:42;14.20;1.00
2973;DHT22;1496;51.404;7.232;2023-05-20T09:28:08;14.30;1.00
2973;DHT22;1496;51.404;7.232;2023-05-20T09:30:35;14.30;1.00
2973;DHT22;1496;51.404;7.232;2023-05-20T09:33:03;14.30;1.00
2973;DHT22;1496;51.404;7.232;2023-05-20T09:35:33;14.40;1.00
2973;DHT22;1496;51.404;7.232;2023-05-20T09:38:00;14.40;1.00
2973;DHT22;1496;51.404;7.232;2023-05-20T09:40:28;14.40;1.00
2973;DHT22;1496;51.404;7.232;2023-05-20T09:43:02;14.30;1.00
2973;DHT22;1496;51.404;7.232;2023-05-20T09:45:29;14.30;1.00
2973;DHT22;1496;51.404;7.232;2023-05-20T09:47:56;14.30;1.00
2973;DHT22;1496;51.404;7.232;2023-05-20T09:50:25;14.30;1.00
2973;DHT22;1496;51.404;7.232;2023-05-20T09:52:54;14.30;1.00
2973;DHT22;1496;51.404;7.232;2023-05-20T09:55:22;14.30;1.00
2973;DHT22;1496;51.404;7.232;2023-05-20T09:57:49;14.30;1.00
2973;DHT22;1496;51.404;7.232;2023-05-20T10:00:16;14.30;1.00
2973;DHT22;1496;51.404;7.232;2023-05-20T10:02:46;14.30;1.00
2973;DHT22;1496;51.404;7.232;2023-05-20T10:05:21;14.50;1.00
2973;DHT22;1496;51.404;7.232;2023-05-20T10:08:07;14.50;1.00
2973;DHT22;1496;51.404;7.232;2023-05-20T10:11:10;14.50;1.00
2973;DHT22;1496;51.404;7.232;2023-05-20T10:19:27;14.50;1.00
2973;DHT22;1496;51.404;7.232;2023-05-20T10:24:30;14.60;1.00
2973;DHT22;1496;51.404;7.232;2023-05-20T10:27:02;14.60;1.00
2973;DHT22;1496;51.404;7.232;2023-05-20T10:29:43;14.60;1.00
2973;DHT22;1496;51.404;7.232;2023-05-20T10:32:10;14.70;1.00
2973;DHT22;1496;51.404;7.232;2023-05-20T10:34:48;14.70;1.00
2973;DHT22;1496;51.404;7.232;2023-05-20T10:37:23;14.60;1.00
2973;DHT22;1496;51.404;7.232;2023-05-20T10:39:51;14.80;1.00
2973;DHT22;1496;51.404;7.232;2023-05-20T10:42:27;14.70;1.00
2973;DHT22;1496;51.404;7.232;2023-05-20T10:44:55;14.80;1.00
2973;DHT22;1496;51.404;7.232;2023-05-20T10:47:24;14.90;1.00
2973;DHT22;1496;51.404;7.232;2023-05-20T10:49:51;15.00;1.00
2973;DHT22;1496;51.404;7.232;2023-05-20T10:52:17;15.00;1.00
2973;DHT22;1496;51.404;7.232;2023-05-20T10:54:46;15.10;1.00
2973;DHT22;1496;51.404;7.232;2023-05-20T10:57:13;15.10;1.00
2973;DHT22;1496;51.404;7.232;2023-05-20T10:59:40;15.20;1.00
2973;DHT22;1496;51.404;7.232;2023-05-20T11:02:09;15.20;1.00
2973;DHT22;1496;51.404;7.232;2023-05-20T11:04:39;15.40;1.00
2973;DHT22;1496;51.404;7.232;2023-05-20T11:07:08;15.40;1.00
2973;DHT22;1496;51.404;7.232;2023-05-20T11:09:35;15.50;1.00
2973;DHT22;1496;51.404;7.232;2023-05-20T11:12:02;15.50;1.00
2973;DHT22;1496;51.404;7.232;2023-05-20T11:14:30;15.60;1.00
2973;DHT22;1496;51.404;7.232;2023-05-20T11:16:58;15.80;1.00
2973;DHT22;1496;51.404;7.232;2023-05-20T11:19:26;15.90;1.00
2973;DHT22;1496;51.404;7.232;2023-05-20T11:21:52;16.00;1.00
2973;DHT22;1496;51.404;7.232;2023-05-20T11:24:24;16.10;1.00
2973;DHT22;1496;51.404;7.232;2023-05-20T11:26:51;16.30;1.00
2973;DHT22;1496;51.404;7.232;2023-05-20T11:29:19;16.30;1.00
2973;DHT22;1496;51.404;7.232;2023-05-20T11:31:52;16.40;1.00
2973;DHT22;1496;51.404;7.232;2023-05-20T11:34:21;16.60;1.00
2973;DHT22;1496;51.404;7.232;2023-05-20T11:36:56;16.60;1.00
2973;DHT22;1496;51.404;7.232;2023-05-20T11:39:24;16.80;1.00
2973;DHT22;1496;51.404;7.232;2023-05-20T11:41:54;16.90;1.00
2973;DHT22;1496;51.404;7.232;2023-05-20T11:44:20;17.00;1.00
2973;DHT22;1496;51.404;7.232;2023-05-20T11:46:47;17.10;1.00
2973;DHT22;1496;51.404;7.232;2023-05-20T11:49:14;17.10;1.00
2973;DHT22;1496;51.404;7.232;2023-05-20T11:51:43;17.20;1.00
2973;DHT22;1496;51.404;7.232;2023-05-20T11:54:10;17.20;1.00
2973;DHT22;1496;51.404;7.232;2023-05-20T11:56:39;17.30;1.00
2973;DHT22;1496;51.404;7.232;2023-05-20T11:59:10;17.40;1.00
2973;DHT22;1496;51.404;7.232;2023-05-20T12:01:38;17.50;1.00
2973;DHT22;1496;51.404;7.232;2023-05-20T12:04:07;17.60;1.00
2973;DHT22;1496;51.404;7.232;2023-05-20T12:06:34;17.60;1.00
2973;DHT22;1496;51.404;7.232;2023-05-20T12:09:03;17.60;1.00
2973;DHT22;1496;51.404;7.232;2023-05-20T12:11:37;17.50;1.00
2973;DHT22;1496;51.404;7.232;2023-05-20T12:14:07;17.70;1.00
2973;DHT22;1496;51.404;7.232;2023-05-20T12:16:35;17.90;1.00
2973;DHT22;1496;51.404;7.232;2023-05-20T12:19:03;18.00;1.00
2973;DHT22;1496;51.404;7.232;2023-05-20T12:21:30;18.00;1.00
2973;DHT22;1496;51.404;7.232;2023-05-20T12:23:58;18.00;1.00
2973;DHT22;1496;51.404;7.232;2023-05-20T12:26:26;17.90;1.00
2973;DHT22;1496;51.404;7.232;2023-05-20T12:28:56;17.90;1.00
2973;DHT22;1496;51.404;7.232;2023-05-20T12:31:23;17.80;1.00
2973;DHT22;1496;51.404;7.232;2023-05-20T12:33:50;17.70;1.00
2973;DHT22;1496;51.404;7.232;2023-05-20T12:36:17;17.50;1.00
2973;DHT22;1496;51.404;7.232;2023-05-20T12:38:46;17.40;1.00
2973;DHT22;1496;51.404;7.232;2023-05-20T12:41:13;17.40;1.00
2973;DHT22;1496;51.404;7.232;2023-05-20T12:43:39;17.30;1.00
2973;DHT22;1496;51.404;7.232;2023-05-20T12:46:06;17.30;1.00
2973;DHT22;1496;51.404;7.232;2023-05-20T12:48:33;17.30;1.00
2973;DHT22;1496;51.404;7.232;2023-05-20T12:51:00;17.20;1.00
2973;DHT22;1496;51.404;7.232;2023-05-20T12:53:26;17.20;1.00
2973;DHT22;1496;51.404;7.232;2023-05-20T12:55:54;17.30;1.00
2973;DHT22;1496;51.404;7.232;2023-05-20T12:58:22;17.20;1.00
2973;DHT22;1496;51.404;7.232;2023-05-20T13:00:50;17.20;1.00
2973;DHT22;1496;51.404;7.232;2023-05-20T13:03:17;17.10;1.00
2973;DHT22;1496;51.404;7.232;2023-05-20T13:05:44;17.00;1.00
2973;DHT22;1496;51.404;7.232;2023-05-20T13:08:12;17.00;1.00
2973;DHT22;1496;51.404;7.232;2023-05-20T13:10:40;17.10;1.00
2973;DHT22;1496;51.404;7.232;2023-05-20T13:13:07;17.10;1.00
2973;DHT22;1496;51.404;7.232;2023-05-20T13:15:34;17.10;1.00
2973;DHT22;1496;51.404;7.232;2023-05-20T13:18:03;17.20;1.00
2973;DHT22;1496;51.404;7.232;2023-05-20T13:20:32;17.20;1.00
2973;DHT22;1496;51.404;7.232;2023-05-20T13:22:59;17.20;1.00
2973;DHT22;1496;51.404;7.232;2023-05-20T13:25:25;17.20;1.00
2973;DHT22;1496;51.404;7.232;2023-05-20T13:27:52;17.20;1.00
2973;DHT22;1496;51.404;7.232;2023-05-20T13:30:19;17.20;1.00
2973;DHT22;1496;51.404;7.232;2023-05-20T13:32:46;17.20;1.00
2973;DHT22;1496;51.404;7.232;2023-05-20T13:35:13;17.20;1.00
2973;DHT22;1496;51.404;7.232;2023-05-20T13:37:42;17.30;1.00
2973;DHT22;1496;51.404;7.232;2023-05-20T13:40:09;17.30;1.00
2973;DHT22;1496;51.404;7.232;2023-05-20T13:42:36;17.50;1.00
2973;DHT22;1496;51.404;7.232;2023-05-20T13:45:03;17.50;1.00
2973;DHT22;1496;51.404;7.232;2023-05-20T13:47:31;17.50;1.00
2973;DHT22;1496;51.404;7.232;2023-05-20T13:49:59;17.50;1.00
2973;DHT22;1496;51.404;7.232;2023-05-20T13:52:28;17.60;1.00
2973;DHT22;1496;51.404;7.232;2023-05-20T13:54:54;17.60;1.00
2973;DHT22;1496;51.404;7.232;2023-05-20T13:57:22;17.50;1.00
2973;DHT22;1496;51.404;7.232;2023-05-20T13:59:49;17.50;1.00
2973;DHT22;1496;51.404;7.232;2023-05-20T14:02:15;17.60;1.00
2973;DHT22;1496;51.404;7.232;2023-05-20T14:04:42;17.50;1.00
2973;DHT22;1496;51.404;7.232;2023-05-20T14:07:13;17.50;1.00
2973;DHT22;1496;51.404;7.232;2023-05-20T14:09:40;17.60;1.00
2973;DHT22;1496;51.404;7.232;2023-05-20T14:12:07;17.60;1.00
2973;DHT22;1496;51.404;7.232;2023-05-20T14:14:35;17.60;1.00
2973;DHT22;1496;51.404;7.232;2023-05-20T14:17:01;17.70;1.00
2973;DHT22;1496;51.404;7.232;2023-05-20T14:19:29;17.70;1.00
2973;DHT22;1496;51.404;7.232;2023-05-20T14:21:57;17.90;1.00
2973;DHT22;1496;51.404;7.232;2023-05-20T14:24:26;18.00;1.00
2973;DHT22;1496;51.404;7.232;2023-05-20T14:26:53;18.00;1.00
2973;DHT22;1496;51.404;7.232;2023-05-20T14:29:22;18.00;1.00
2973;DHT22;1496;51.404;7.232;2023-05-20T14:31:50;18.00;1.00
2973;DHT22;1496;51.404;7.232;2023-05-20T14:34:17;18.10;1.00
2973;DHT22;1496;51.404;7.232;2023-05-20T14:36:44;18.10;1.00
2973;DHT22;1496;51.404;7.232;2023-05-20T14:39:11;18.00;1.00
2973;DHT22;1496;51.404;7.232;2023-05-20T14:41:39;17.80;1.00
2973;DHT22;1496;51.404;7.232;2023-05-20T14:44:07;17.60;1.00
2973;DHT22;1496;51.404;7.232;2023-05-20T14:46:36;17.50;1.00
2973;DHT22;1496;51.404;7.232;2023-05-20T14:49:02;17.30;1.00
2973;DHT22;1496;51.404;7.232;2023-05-20T14:51:30;17.20;1.00
2973;DHT22;1496;51.404;7.232;2023-05-20T14:53:58;17.10;1.00
2973;DHT22;1496;51.404;7.232;2023-05-20T14:56:25;17.10;1.00
2973;DHT22;1496;51.404;7.232;2023-05-20T14:58:56;17.10;1.00
2973;DHT22;1496;51.404;7.232;2023-05-20T15:01:25;17.10;1.00
2973;DHT22;1496;51.404;7.232;2023-05-20T15:03:52;17.00;1.00
2973;DHT22;1496;51.404;7.232;2023-05-20T15:06:20;17.00;1.00
2973;DHT22;1496;51.404;7.232;2023-05-20T15:08:46;17.00;1.00
2973;DHT22;1496;51.404;7.232;2023-05-20T15:11:13;17.00;1.00
2973;DHT22;1496;51.404;7.232;2023-05-20T15:13:41;17.00;1.00
2973;DHT22;1496;51.404;7.232;2023-05-20T15:16:09;17.00;1.00
2973;DHT22;1496;51.404;7.232;2023-05-20T15:18:36;17.00;1.00
2973;DHT22;1496;51.404;7.232;2023-05-20T15:21:03;17.00;1.00
2973;DHT22;1496;51.404;7.232;2023-05-20T15:23:29;16.90;1.00
2973;DHT22;1496;51.404;7.232;2023-05-20T15:25:57;16.90;1.00
2973;DHT22;1496;51.404;7.232;2023-05-20T15:28:23;16.90;1.00
2973;DHT22;1496;51.404;7.232;2023-05-20T15:30:53;16.80;1.00
2973;DHT22;1496;51.404;7.232;2023-05-20T15:33:22;16.80;1.00
2973;DHT22;1496;51.404;7.232;2023-05-20T15:35:48;16.80;1.00
2973;DHT22;1496;51.404;7.232;2023-05-20T15:38:16;16.70;1.00
2973;DHT22;1496;51.404;7.232;2023-05-20T15:40:43;16.70;1.00
2973;DHT22;1496;51.404;7.232;2023-05-20T15:43:10;16.70;1.00
2973;DHT22;1496;51.404;7.232;2023-05-20T15:45:43;16.60;1.00
2973;DHT22;1496;51.404;7.232;2023-05-20T15:48:11;16.60;1.00
2973;DHT22;1496;51.404;7.232;2023-05-20T15:50:38;16.60;1.00
2973;DHT22;1496;51.404;7.232;2023-05-20T15:53:08;16.60;1.00
2973;DHT22;1496;51.404;7.232;2023-05-20T15:55:36;16.50;1.00
2973;DHT22;1496;51.404;7.232;2023-05-20T15:58:04;16.50;1.00
2973;DHT22;1496;51.404;7.232;2023-05-20T16:00:31;16.50;1.00
2973;DHT22;1496;51.404;7.232;2023-05-20T16:02:58;16.50;1.00
2973;DHT22;1496;51.404;7.232;2023-05-20T16:05:25;16.50;1.00
2973;DHT22;1496;51.404;7.232;2023-05-20T16:07:53;16.50;1.00
2973;DHT22;1496;51.404;7.232;2023-05-20T16:10:23;16.40;1.00
2973;DHT22;1496;51.404;7.232;2023-05-20T16:12:51;16.40;1.00
2973;DHT22;1496;51.404;7.232;2023-05-20T16:15:18;16.40;1.00
2973;DHT22;1496;51.404;7.232;2023-05-20T16:17:46;16.40;1.00
2973;DHT22;1496;51.404;7.232;2023-05-20T16:20:13;16.40;1.00
2973;DHT22;1496;51.404;7.232;2023-05-20T16:22:39;16.40;1.00
2973;DHT22;1496;51.404;7.232;2023-05-20T16:25:06;16.40;1.00
2973;DHT22;1496;51.404;7.232;2023-05-20T16:27:33;16.40;1.00
2973;DHT22;1496;51.404;7.232;2023-05-20T16:30:01;16.40;1.00
2973;DHT22;1496;51.404;7.232;2023-05-20T16:32:29;16.40;1.00